sim
Sign-in with your pilot id or email,
or register
Callsign
Passwort

Schedule Details

Flight Number: DLH1952 (3)
Departure: Munich Airport (EDDM) at 17:25
Arrival: Pisa Galileo Galilei Airport (LIRP) at 18:40
Route: Lufthansa Passenger Schedule. Enter filed route here before submitting Pirep.

Weather Information
Getting current METAR information for EDDM 240350Z VRB01KT CAVOK 10/10 Q1009 NOSIG
Getting current METAR information for LIRP 240345Z 05003KT 9999 FEW020CB BKN025 17/16 Q1011 NOSIG

Schedule Frequency

Route Map